createdAt,value
2022-12-08T00:01:19.111Z,87.86
2022-12-08T00:03:51.407Z,87.94
2022-12-08T00:06:48.622Z,87.92
2022-12-08T00:09:36.309Z,87.94
2022-12-08T00:12:10.998Z,87.72
2022-12-08T00:14:40.471Z,87.82
2022-12-08T00:17:10.064Z,87.79
2022-12-08T00:19:37.262Z,87.58
2022-12-08T00:22:03.765Z,87.54
2022-12-08T00:24:33.218Z,87.59
2022-12-08T00:26:59.776Z,87.49
2022-12-08T00:29:26.568Z,87.44
2022-12-08T00:31:53.899Z,87.58
2022-12-08T00:34:20.805Z,87.61
2022-12-08T00:36:47.608Z,87.61
2022-12-08T00:39:16.424Z,87.43
2022-12-08T00:42:01.539Z,87.57
2022-12-08T00:44:28.295Z,87.56
2022-12-08T00:46:54.915Z,87.52
2022-12-08T00:49:21.861Z,87.46
2022-12-08T00:51:48.693Z,87.44
2022-12-08T00:54:15.306Z,87.51
2022-12-08T00:56:41.901Z,87.54
2022-12-08T00:59:08.611Z,87.53
2022-12-08T01:01:36.363Z,87.60
2022-12-08T01:04:07.164Z,87.59
2022-12-08T01:06:35.452Z,87.68
2022-12-08T01:09:04.081Z,87.66
2022-12-08T01:11:30.708Z,87.66
2022-12-08T01:13:57.387Z,87.76
2022-12-08T01:16:29.617Z,87.85
2022-12-08T01:18:57.239Z,87.81
2022-12-08T01:21:23.850Z,87.97
2022-12-08T01:23:50.474Z,88.02
2022-12-08T01:26:19.217Z,87.86
2022-12-08T01:28:47.074Z,88.07
2022-12-08T01:31:16.976Z,88.29
2022-12-08T01:33:43.996Z,88.29
2022-12-08T01:36:21.121Z,88.19
2022-12-08T01:38:47.906Z,88.03
2022-12-08T01:41:17.142Z,88.21
2022-12-08T01:44:11.101Z,88.29
2022-12-08T01:46:43.030Z,88.24
2022-12-08T01:49:22.516Z,88.18
2022-12-08T01:52:20.085Z,88.28
2022-12-08T01:54:51.558Z,88.30
2022-12-08T01:57:26.675Z,88.40
2022-12-08T02:00:00.542Z,88.40
2022-12-08T02:02:34.315Z,88.34
2022-12-08T02:05:03.284Z,88.45
2022-12-08T02:07:30.888Z,88.41
2022-12-08T02:09:57.911Z,88.48
2022-12-08T02:12:24.908Z,88.31
2022-12-08T02:14:51.643Z,88.38
2022-12-08T02:17:27.390Z,88.33
2022-12-08T02:20:18.183Z,88.29
2022-12-08T02:23:02.710Z,88.31
2022-12-08T02:25:38.470Z,88.42
2022-12-08T02:28:17.866Z,88.34
2022-12-08T02:31:10.442Z,88.60
2022-12-08T02:34:03.080Z,88.62
2022-12-08T02:36:51.332Z,88.64
2022-12-08T02:39:23.753Z,88.72
2022-12-08T02:45:25.310Z,89.04
2022-12-08T02:47:52.513Z,88.94
2022-12-08T02:50:19.289Z,89.19
2022-12-08T02:52:47.933Z,88.65
2022-12-08T02:55:14.441Z,88.79
2022-12-08T02:58:07.226Z,88.87
2022-12-08T03:01:01.777Z,88.76
2022-12-08T03:03:36.013Z,88.67
2022-12-08T03:06:20.629Z,88.76
2022-12-08T03:08:55.396Z,88.63
2022-12-08T03:11:33.146Z,88.67
2022-12-08T03:14:02.592Z,88.43
2022-12-08T03:16:30.963Z,88.63
2022-12-08T03:19:10.760Z,88.71
2022-12-08T03:21:37.901Z,88.61
2022-12-08T03:24:07.980Z,88.60
2022-12-08T03:26:36.786Z,88.48
2022-12-08T03:29:04.003Z,88.53
2022-12-08T03:31:37.574Z,88.37
2022-12-08T03:34:05.458Z,88.43
2022-12-08T03:36:32.303Z,88.35
2022-12-08T03:38:58.949Z,88.50
2022-12-08T03:41:25.603Z,88.44
2022-12-08T03:43:59.447Z,88.46
2022-12-08T03:48:56.320Z,88.30
2022-12-08T03:51:23.300Z,88.36
2022-12-08T03:53:50.269Z,88.22
2022-12-08T03:56:28.705Z,88.34
2022-12-08T03:58:55.664Z,88.40
2022-12-08T04:01:22.786Z,88.37
2022-12-08T04:03:49.556Z,88.14
2022-12-08T04:06:17.121Z,88.13
2022-12-08T04:08:44.047Z,87.92
2022-12-08T04:11:11.185Z,88.04
2022-12-08T04:13:40.137Z,87.97
2022-12-08T04:16:07.818Z,88.03
2022-12-08T04:18:35.553Z,87.91
2022-12-08T04:21:02.713Z,87.86
2022-12-08T04:23:29.286Z,87.82
2022-12-08T04:25:55.853Z,87.92
2022-12-08T04:28:22.505Z,88.15
2022-12-08T04:30:49.925Z,88.07
2022-12-08T04:33:17.117Z,87.90
2022-12-08T04:35:43.916Z,87.97
2022-12-08T04:38:10.673Z,88.14
2022-12-08T04:40:37.315Z,88.12
2022-12-08T04:43:04.296Z,88.07
2022-12-08T04:45:31.319Z,88.18
2022-12-08T04:47:59.543Z,88.06
2022-12-08T04:50:26.462Z,88.10
2022-12-08T04:52:53.637Z,87.86
2022-12-08T04:55:20.405Z,88.08
2022-12-08T04:58:01.113Z,88.04
2022-12-08T05:00:27.864Z,88.31
2022-12-08T05:02:54.666Z,88.19
2022-12-08T05:05:21.406Z,88.28
2022-12-08T05:07:48.034Z,88.34
2022-12-08T05:10:14.669Z,88.03
2022-12-08T05:12:41.281Z,88.33
2022-12-08T05:15:08.380Z,88.26
2022-12-08T05:17:34.907Z,88.44
2022-12-08T05:20:02.401Z,88.52
2022-12-08T05:22:29.223Z,88.60
2022-12-08T05:24:55.840Z,88.56
2022-12-08T05:27:22.390Z,88.53
2022-12-08T05:29:50.260Z,88.52
2022-12-08T05:32:16.998Z,88.36
2022-12-08T05:34:43.664Z,88.55
2022-12-08T05:37:10.269Z,88.53
2022-12-08T05:39:37.021Z,88.50
2022-12-08T05:42:03.829Z,88.49
2022-12-08T05:44:30.385Z,88.50
2022-12-08T05:46:57.081Z,88.40
2022-12-08T05:49:23.662Z,88.46
2022-12-08T05:51:50.318Z,88.20
2022-12-08T05:54:17.011Z,88.23
2022-12-08T05:56:43.860Z,88.30
2022-12-08T05:59:10.583Z,88.13
2022-12-08T06:01:37.284Z,87.99
2022-12-08T06:04:04.525Z,87.97
2022-12-08T06:06:32.153Z,87.79
2022-12-08T06:08:58.826Z,87.86
2022-12-08T06:11:30.885Z,87.83
2022-12-08T06:13:58.122Z,87.71
2022-12-08T06:16:26.445Z,87.75
2022-12-08T06:18:53.169Z,87.84
2022-12-08T06:21:20.864Z,87.83
2022-12-08T06:23:52.586Z,87.77
2022-12-08T06:26:19.950Z,87.94
2022-12-08T06:28:46.618Z,87.70
2022-12-08T06:31:17.548Z,87.61
2022-12-08T06:33:44.374Z,87.75
2022-12-08T06:36:13.397Z,87.69
2022-12-08T06:38:43.268Z,87.48
2022-12-08T06:41:11.309Z,87.32
2022-12-08T06:43:38.391Z,87.49
2022-12-08T06:46:10.840Z,87.34
2022-12-08T06:48:37.566Z,87.26
2022-12-08T06:51:13.572Z,87.31
2022-12-08T06:53:40.778Z,87.38
2022-12-08T06:56:07.887Z,87.17
2022-12-08T06:58:34.877Z,87.10
2022-12-08T07:01:10.598Z,87.04
2022-12-08T07:03:38.813Z,87.05
2022-12-08T07:06:06.320Z,86.95
2022-12-08T07:08:34.125Z,86.85
2022-12-08T07:11:06.853Z,86.65
2022-12-08T07:13:33.454Z,86.44
2022-12-08T07:16:00.117Z,86.53
2022-12-08T07:18:26.721Z,86.28
2022-12-08T07:20:53.236Z,86.19
2022-12-08T07:23:19.810Z,86.01
2022-12-08T07:25:47.342Z,85.88
2022-12-08T07:28:14.888Z,85.80
2022-12-08T07:30:41.544Z,85.67
2022-12-08T07:33:08.256Z,85.53
2022-12-08T07:35:35.382Z,85.18
2022-12-08T07:38:02.591Z,85.33
2022-12-08T07:40:29.402Z,84.80
2022-12-08T07:42:55.983Z,84.63
2022-12-08T07:45:28.214Z,84.72
2022-12-08T07:47:58.044Z,84.43
2022-12-08T07:50:24.827Z,84.24
2022-12-08T07:52:51.391Z,84.26
2022-12-08T07:55:17.951Z,83.82
2022-12-08T07:57:44.583Z,83.43
2022-12-08T08:00:11.734Z,83.30
2022-12-08T08:02:38.674Z,83.12
2022-12-08T08:05:06.539Z,83.35
2022-12-08T08:07:34.661Z,83.45
2022-12-08T08:10:01.332Z,83.27
2022-12-08T08:12:32.303Z,83.03
2022-12-08T08:15:00.875Z,82.51
2022-12-08T08:17:28.713Z,82.42
2022-12-08T08:19:55.501Z,82.29
2022-12-08T08:22:22.042Z,81.83
2022-12-08T08:24:48.725Z,81.76
2022-12-08T08:27:15.373Z,81.83
2022-12-08T08:29:42.054Z,81.78
2022-12-08T08:32:08.760Z,82.03
2022-12-08T08:34:35.368Z,82.31
2022-12-08T08:37:01.963Z,82.16
2022-12-08T08:39:30.229Z,82.13
2022-12-08T08:41:56.797Z,82.03
2022-12-08T08:44:23.574Z,81.81
2022-12-08T08:46:51.647Z,81.48
2022-12-08T08:49:18.837Z,81.29
2022-12-08T08:51:46.036Z,81.09
2022-12-08T08:54:12.736Z,80.80
2022-12-08T08:56:39.324Z,80.78
2022-12-08T08:59:05.982Z,80.58
2022-12-08T09:01:32.665Z,80.47
2022-12-08T09:03:59.555Z,80.29
2022-12-08T09:06:28.294Z,79.97
2022-12-08T09:08:55.166Z,80.17
2022-12-08T09:11:23.561Z,80.13
2022-12-08T09:13:51.712Z,80.26
2022-12-08T09:16:20.194Z,80.13
2022-12-08T09:18:48.329Z,79.90
2022-12-08T09:21:16.849Z,80.07
2022-12-08T09:23:43.999Z,79.87
2022-12-08T09:26:10.829Z,80.82
2022-12-08T09:28:37.975Z,79.99
2022-12-08T09:31:05.139Z,79.31
2022-12-08T09:33:31.950Z,78.85
2022-12-08T09:36:03.610Z,78.95
2022-12-08T09:38:30.431Z,78.73
2022-12-08T09:40:57.555Z,78.51
2022-12-08T09:43:45.500Z,78.14
2022-12-08T09:46:17.574Z,78.07
2022-12-08T09:48:55.762Z,77.29
2022-12-08T09:51:35.429Z,77.17
2022-12-08T09:54:12.778Z,77.04
2022-12-08T09:56:39.972Z,76.86
2022-12-08T09:59:35.075Z,76.76
2022-12-08T10:02:03.030Z,76.57
2022-12-08T10:04:36.474Z,76.53
2022-12-08T10:07:04.721Z,75.92
2022-12-08T10:09:40.389Z,75.26
2022-12-08T10:12:26.190Z,75.12
2022-12-08T10:15:10.162Z,74.74
2022-12-08T10:17:48.945Z,74.62
2022-12-08T10:20:20.721Z,74.77
2022-12-08T10:22:56.309Z,74.42
2022-12-08T10:25:35.090Z,74.34
2022-12-08T10:28:01.682Z,74.15
2022-12-08T10:30:28.336Z,73.83
2022-12-08T10:32:55.142Z,73.09
2022-12-08T10:35:23.858Z,73.13
2022-12-08T10:38:00.667Z,73.05
2022-12-08T10:40:29.586Z,72.73
2022-12-08T10:42:59.166Z,72.52
2022-12-08T10:45:33.338Z,72.41
2022-12-08T10:48:03.506Z,72.54
2022-12-08T10:51:00.312Z,72.28
2022-12-08T10:53:32.382Z,72.93
2022-12-08T10:56:02.033Z,72.65
2022-12-08T10:58:40.893Z,72.90
2022-12-08T11:01:18.871Z,72.47
2022-12-08T11:03:57.207Z,72.23
2022-12-08T11:06:36.765Z,72.01
2022-12-08T11:09:15.664Z,71.33
2022-12-08T11:11:48.136Z,71.02
2022-12-08T11:14:35.408Z,70.68
2022-12-08T11:17:26.347Z,70.10
2022-12-08T11:19:59.890Z,70.21
2022-12-08T11:22:29.398Z,70.30
2022-12-08T11:25:02.858Z,70.27
2022-12-08T11:27:30.030Z,70.95
2022-12-08T11:29:57.011Z,70.82
2022-12-08T11:32:23.907Z,70.93
2022-12-08T11:35:02.571Z,70.73
2022-12-08T11:37:35.426Z,70.82
2022-12-08T11:40:07.467Z,70.88
2022-12-08T11:42:45.659Z,70.83
2022-12-08T11:45:19.418Z,70.67
2022-12-08T11:47:56.364Z,70.43
2022-12-08T11:50:29.723Z,70.52
2022-12-08T11:52:58.249Z,70.56
2022-12-08T11:55:37.060Z,70.74
2022-12-08T11:58:14.930Z,70.13
2022-12-08T12:00:41.602Z,70.29
2022-12-08T12:03:29.767Z,70.18
2022-12-08T12:06:38.134Z,70.21
2022-12-08T12:09:53.436Z,70.26
2022-12-08T12:12:44.931Z,70.25
2022-12-08T12:15:12.566Z,69.93
2022-12-08T12:17:49.176Z,70.60
2022-12-08T12:20:26.019Z,70.75
2022-12-08T12:23:01.034Z,70.78
2022-12-08T12:25:28.787Z,70.45
2022-12-08T12:28:01.547Z,70.82
2022-12-08T12:30:32.963Z,71.34
2022-12-08T12:33:02.332Z,71.68
2022-12-08T12:35:41.437Z,72.11
2022-12-08T12:38:43.087Z,72.56
2022-12-08T12:41:16.362Z,72.55
2022-12-08T12:44:07.855Z,72.71
2022-12-08T12:46:40.194Z,73.46
2022-12-08T12:49:40.935Z,73.81
2022-12-08T12:52:10.549Z,73.89
2022-12-08T12:54:45.832Z,74.13
2022-12-08T12:57:12.294Z,74.32
2022-12-08T13:00:09.485Z,74.56
2022-12-08T13:02:36.308Z,74.64
2022-12-08T13:05:24.260Z,74.76
2022-12-08T13:08:00.709Z,75.21
2022-12-08T13:10:37.268Z,75.41
2022-12-08T13:13:09.663Z,75.58
2022-12-08T13:15:56.346Z,75.92
2022-12-08T13:18:45.117Z,75.93
2022-12-08T13:21:18.775Z,75.84
2022-12-08T13:23:47.290Z,76.24
2022-12-08T13:26:25.853Z,76.43
2022-12-08T13:29:01.819Z,76.58
2022-12-08T13:31:48.289Z,76.78
2022-12-08T13:34:41.669Z,76.93
2022-12-08T13:37:37.073Z,76.90
2022-12-08T13:40:24.045Z,77.40
2022-12-08T13:43:05.071Z,77.48
2022-12-08T13:46:26.261Z,77.45
2022-12-08T13:49:59.170Z,77.53
2022-12-08T13:57:32.931Z,78.32
2022-12-08T14:00:02.762Z,78.68
2022-12-08T14:02:48.195Z,78.66
2022-12-08T14:05:19.008Z,79.24
2022-12-08T14:07:51.279Z,79.44
2022-12-08T14:10:27.760Z,79.56
2022-12-08T14:13:03.938Z,79.84
2022-12-08T14:15:37.746Z,80.15
2022-12-08T14:18:06.163Z,80.31
2022-12-08T14:20:57.958Z,80.63
2022-12-08T14:23:22.109Z,80.91
2022-12-08T14:25:48.918Z,81.12
2022-12-08T14:28:15.597Z,81.22
2022-12-08T14:30:42.561Z,81.50
2022-12-08T14:33:15.288Z,81.48
2022-12-08T14:35:42.008Z,81.42
2022-12-08T14:38:20.834Z,81.65
2022-12-08T14:40:59.419Z,81.68
2022-12-08T14:43:28.138Z,81.72
2022-12-08T14:46:00.239Z,82.03
2022-12-08T14:48:36.441Z,82.13
2022-12-08T14:51:21.188Z,82.32
2022-12-08T14:53:54.716Z,82.38
2022-12-08T14:56:37.356Z,82.32
2022-12-08T14:59:12.213Z,82.36
2022-12-08T15:01:39.073Z,82.31
2022-12-08T15:04:08.615Z,82.41
2022-12-08T15:06:36.374Z,82.57
2022-12-08T15:09:17.219Z,82.74
2022-12-08T15:11:44.549Z,82.96
2022-12-08T15:14:35.603Z,83.18
2022-12-08T15:17:02.180Z,83.42
2022-12-08T15:19:34.296Z,83.53
2022-12-08T15:22:20.814Z,83.63
2022-12-08T15:24:47.487Z,83.86
2022-12-08T15:29:53.801Z,84.06
2022-12-08T15:32:22.795Z,83.98
2022-12-08T15:34:50.279Z,84.23
2022-12-08T15:37:23.382Z,84.50
2022-12-08T15:39:50.268Z,84.51
2022-12-08T15:42:17.076Z,84.51
2022-12-08T15:44:47.167Z,84.59
2022-12-08T15:47:21.114Z,84.65
2022-12-08T15:49:49.876Z,85.06
2022-12-08T15:52:22.879Z,85.03
2022-12-08T15:54:50.413Z,85.24
2022-12-08T15:57:44.092Z,85.15
2022-12-08T16:09:19.417Z,85.42
2022-12-08T16:12:10.160Z,85.41
2022-12-08T16:17:27.302Z,85.76
2022-12-08T16:19:54.834Z,85.86
2022-12-08T16:25:20.606Z,85.90
2022-12-08T16:30:37.240Z,85.93
2022-12-08T16:33:04.026Z,86.02
2022-12-08T16:35:30.990Z,86.11
2022-12-08T16:37:58.005Z,86.34
2022-12-08T16:40:24.691Z,86.41
2022-12-08T16:42:51.337Z,86.51
2022-12-08T16:45:44.954Z,86.55
2022-12-08T16:48:14.646Z,86.34
2022-12-08T16:50:44.771Z,86.59
2022-12-08T16:53:12.362Z,86.68
2022-12-08T16:55:39.756Z,86.71
2022-12-08T16:58:06.761Z,86.74
2022-12-08T17:00:37.432Z,86.58
2022-12-08T17:03:08.431Z,86.64
2022-12-08T17:05:35.701Z,86.53
2022-12-08T17:08:02.362Z,86.70
2022-12-08T17:10:32.138Z,86.62
2022-12-08T17:13:00.831Z,86.68
2022-12-08T17:15:27.847Z,86.84
2022-12-08T17:17:55.444Z,86.98
2022-12-08T17:20:27.790Z,86.99
2022-12-08T17:22:56.359Z,87.03
2022-12-08T17:25:23.443Z,87.02
2022-12-08T17:27:50.103Z,87.09
2022-12-08T17:30:17.821Z,86.77
2022-12-08T17:32:44.888Z,86.93
2022-12-08T17:35:14.423Z,87.14
2022-12-08T17:37:41.297Z,87.13
2022-12-08T17:40:08.906Z,87.11
2022-12-08T17:42:35.775Z,87.05
2022-12-08T17:45:02.504Z,87.05
2022-12-08T17:47:29.428Z,86.99
2022-12-08T17:49:56.423Z,87.00
2022-12-08T17:52:39.176Z,86.95
2022-12-08T17:55:06.371Z,86.97
2022-12-08T17:57:33.037Z,87.16
2022-12-08T17:59:59.719Z,86.99
2022-12-08T18:02:26.467Z,86.97
2022-12-08T18:04:53.188Z,86.96
2022-12-08T18:07:20.835Z,87.44
2022-12-08T18:09:47.533Z,87.49
2022-12-08T18:12:17.004Z,87.59
2022-12-08T18:14:48.866Z,87.58
2022-12-08T18:17:15.521Z,87.66
2022-12-08T18:19:42.179Z,87.69
2022-12-08T18:22:09.281Z,87.67
2022-12-08T18:24:35.921Z,87.73
2022-12-08T18:27:02.644Z,87.55
2022-12-08T18:29:29.266Z,87.61
2022-12-08T18:31:55.962Z,87.64
2022-12-08T18:34:31.189Z,87.63
2022-12-08T18:37:13.032Z,87.60
2022-12-08T18:39:45.168Z,87.48
2022-12-08T18:42:23.957Z,87.30
2022-12-08T18:44:58.920Z,87.17
2022-12-08T18:47:27.186Z,87.20
2022-12-08T18:49:54.451Z,87.33
2022-12-08T18:52:28.147Z,87.18
2022-12-08T18:55:07.796Z,87.29
2022-12-08T18:57:37.741Z,87.32
2022-12-08T19:00:07.873Z,87.22
2022-12-08T19:02:36.186Z,87.30
2022-12-08T19:05:05.511Z,87.46
2022-12-08T19:07:33.239Z,87.43
2022-12-08T19:12:41.634Z,87.27
2022-12-08T19:15:11.118Z,87.19
2022-12-08T19:18:38.796Z,87.29
2022-12-08T19:27:18.295Z,87.09
2022-12-08T19:30:06.706Z,87.15
2022-12-08T19:32:35.217Z,86.88
2022-12-08T19:35:07.530Z,87.02
2022-12-08T19:37:35.571Z,86.63
2022-12-08T19:40:21.869Z,86.56
2022-12-08T19:43:07.068Z,86.46
2022-12-08T19:45:35.694Z,86.32
2022-12-08T19:48:05.003Z,86.27
2022-12-08T19:50:47.553Z,86.30
2022-12-08T19:55:56.560Z,86.16
2022-12-08T19:58:23.409Z,86.25
2022-12-08T20:00:50.367Z,86.12
2022-12-08T20:03:19.671Z,86.16
2022-12-08T20:05:49.232Z,86.20
2022-12-08T20:08:28.571Z,85.99
2022-12-08T20:10:59.182Z,86.03
2022-12-08T20:13:44.143Z,85.80
2022-12-08T20:16:29.866Z,85.76
2022-12-08T20:21:55.701Z,85.81
2022-12-08T20:24:54.353Z,85.90
2022-12-08T20:27:25.527Z,85.89
2022-12-08T20:29:52.939Z,85.99
2022-12-08T20:32:19.651Z,85.78
2022-12-08T20:34:46.310Z,86.06
2022-12-08T20:37:12.911Z,86.04
2022-12-08T20:39:39.576Z,85.82
2022-12-08T20:42:06.343Z,86.05
2022-12-08T20:44:33.330Z,86.00
2022-12-08T20:47:00.047Z,85.94
2022-12-08T20:49:34.253Z,86.08
2022-12-08T20:52:05.275Z,86.08
2022-12-08T20:54:46.770Z,86.17
2022-12-08T20:57:16.553Z,86.06
2022-12-08T21:20:08.705Z,86.74
2022-12-08T21:22:35.602Z,87.00
2022-12-08T21:25:02.326Z,86.92
2022-12-08T21:27:29.014Z,87.06
2022-12-08T21:29:56.583Z,87.22
2022-12-08T21:32:29.933Z,87.16
2022-12-08T21:34:58.311Z,87.25
2022-12-08T21:37:25.021Z,87.16
2022-12-08T21:39:51.859Z,87.33
2022-12-08T21:42:37.110Z,87.22
2022-12-08T21:45:04.268Z,87.38
2022-12-08T21:47:31.206Z,87.33
2022-12-08T21:49:58.116Z,87.41
2022-12-08T21:52:24.805Z,87.54
2022-12-08T21:54:51.525Z,87.65
2022-12-08T21:57:18.360Z,87.53
2022-12-08T21:59:45.040Z,87.79
2022-12-08T22:02:16.644Z,87.66
2022-12-08T22:04:48.081Z,87.73
2022-12-08T22:07:14.727Z,87.59
2022-12-08T22:09:41.688Z,88.00
2022-12-08T22:12:11.874Z,88.05
2022-12-08T22:14:39.930Z,87.85
2022-12-08T22:17:07.512Z,87.93
2022-12-08T22:19:34.814Z,88.06
2022-12-08T22:22:01.876Z,88.00
2022-12-08T22:24:31.859Z,88.02
2022-12-08T22:26:58.764Z,88.07
2022-12-08T22:29:25.731Z,88.17
2022-12-08T22:31:55.421Z,88.12
2022-12-08T22:34:22.133Z,88.30
2022-12-08T22:36:49.216Z,88.22
2022-12-08T22:39:15.948Z,88.13
2022-12-08T22:41:42.653Z,88.23
2022-12-08T22:44:09.604Z,88.26
2022-12-08T22:46:36.313Z,88.49
2022-12-08T22:49:03.185Z,88.41
2022-12-08T22:51:30.014Z,88.36
2022-12-08T22:53:56.832Z,88.31
2022-12-08T22:56:23.735Z,88.30
2022-12-08T22:58:52.057Z,88.46
2022-12-08T23:01:26.773Z,88.31
2022-12-08T23:03:53.846Z,88.28
2022-12-08T23:06:24.029Z,88.18
2022-12-08T23:08:51.289Z,88.27
2022-12-08T23:11:19.114Z,88.18
2022-12-08T23:13:46.251Z,88.10
2022-12-08T23:16:13.296Z,88.04
2022-12-08T23:18:41.713Z,87.98
2022-12-08T23:21:12.022Z,88.00
2022-12-08T23:23:38.722Z,87.95
2022-12-08T23:26:13.268Z,87.84
2022-12-08T23:28:39.886Z,87.88
2022-12-08T23:31:09.504Z,87.72
2022-12-08T23:33:36.446Z,87.76
2022-12-08T23:36:03.164Z,87.63
2022-12-08T23:38:29.903Z,87.69
2022-12-08T23:41:00.623Z,87.65
2022-12-08T23:43:27.210Z,87.74
2022-12-08T23:45:53.944Z,87.96
2022-12-08T23:48:22.016Z,88.06
2022-12-08T23:50:49.001Z,88.05
2022-12-08T23:53:16.495Z,87.88
2022-12-08T23:55:43.154Z,88.03
2022-12-08T23:58:09.899Z,88.15
